INLO2: Newt Graham Lock And Dam (L&D 18)

Data processed at Fri Mar 09 2018 23:36


All information presented herein is the property of the government of the United States of America and may be revised or deleted at any time without prior notice.
Dissemination of this information without the expressed written consent of the Public Affairs Office, Tulsa District U.S. Army Corps of Engineers is strictly prohibited.
These data are gathered electronically and, as presented, have not undergone any form of quality control. These data are not guaranteed to be valid or correct.
Go to home page.
Go to station list.

Upstream stations:

Downstream station:
Previous Day
Next Day
Current Day
    
SHEF ID:       INLO2     Newt Graham Lock And Dam
STATION TYPE:  NAVIGATION LOCK
Normal Pool:  Bottom =   532.00, Top =   532.50

               PRECIP ELEVATION   STORAGE   TW-ELEV LOCK-ELEV    INFLOW   RELEASE    GATE-1    GATE-2    GATE-3  AIR-TEMP  WIND-DIRWIND-SPEED REL-HUMID SOLAR-RAD   VOLTAGE  BAT-LOAD
                   in        ft     ac-ft        ft        ft       cfs       cfs        ft        ft        ft         F       deg       mph         %      W/m2      volt      volt
              Ccp-Rev   Ccp-Rev   Ccp-Rev   Ccp-Rev   Ccp-Rev  Regi-Rev  Regi-Rev   Ccp-Rev   Ccp-Rev   Ccp-Rev   Ccp-Rev   Ccp-Rev   Ccp-Rev   Ccp-Rev   Ccp-Rev   Ccp-Rev   Ccp-Rev
(US/Central)
03/07 00:00      0.00    532.50     24260    511.91      ----      4816      4109      ----      ----      ----     36.90    347.20      9.50     52.13      0.00     13.48     12.65
03/07 01:00      0.00    532.51     24275    511.95      ----      4820      4111      ----      ----      ----     35.76    335.50      7.20     55.87      0.00     13.48     12.65
03/07 02:00      0.00    532.56     24352    511.95      ----      4861      4114      ----      ----      ----     34.21    344.30      5.00     59.68      0.00     13.48     12.65
03/07 03:00      0.00    532.61     24429    511.96      ----      4677      4119      ----      ----      ----     33.64    346.50      7.10     61.39      0.00     13.48     12.65
03/07 04:00      0.00    532.66     24506    511.98      ----      4622      4123      ----      ----      ----     32.97    349.80      7.00     63.03      0.00     13.48     12.65
03/07 05:00      0.00    532.65     24491    511.99      ----      4530      4125      ----      ----      ----     31.96    343.70      6.80     66.88      0.00     13.48     12.65
03/07 06:00      0.00    532.64     24476    512.15      ----      4289      4209      ----      ----      ----     31.42    342.00      5.50     69.60      0.00     13.48     12.65
03/07 07:00      0.00    532.66     24506    512.15      ----      4121      4209      ----      ----      ----     31.08    319.40      3.90     72.07      0.00     13.48     12.65
03/07 08:00      0.00    532.60     24414    512.29      ----      4363      4966      ----      ----      ----     31.30    305.70      4.90     71.10     41.50     13.48     12.65
03/07 09:00      0.00    532.56     24352    512.32      ----      4474      4960      ----      ----      ----     32.88    326.20      7.50     67.28    213.10     13.48     12.65
03/07 10:00      0.00    532.53     24306    512.42      ----      4548      5705      ----      ----      ----     35.71    339.70      9.40     57.64    453.80     13.48     12.65
03/07 11:00      0.00    532.47     24214    512.41      ----      4692      5700      ----      ----      ----     37.04    329.80      9.60     55.41    667.60     13.48     12.65
03/07 12:00      0.00    532.43     24152    512.39      ----      4723      5693      ----      ----      ----     39.09    326.60      8.50     50.83    766.80     13.48     12.65
03/07 13:00      0.00    532.37     24060    512.38      ----      4828      5686      ----      ----      ----     42.17    320.70      8.40     45.01    810.30     13.48     12.65
03/07 14:00      0.00    532.30     23952    512.36      ----      4785      5678      ----      ----      ----     44.89    327.90     10.30     40.73    777.80     13.48     12.65
03/07 15:00      0.00    532.30     23952    512.37      ----      4630      5672      ----      ----      ----     47.62    326.00      9.20     36.71    687.10     13.48     12.65
03/07 16:00      0.00    532.27     23906    512.26      ----      4923      4922      ----      ----      ----     49.93    324.60      8.00     31.61    539.10     13.48     12.65
03/07 17:00      0.00    532.23     23844    512.26      ----      5219      4919      ----      ----      ----     52.11    335.20      9.10     25.87    349.30     13.48     12.65
03/07 18:00      0.00    532.29     23937    512.14      ----      4474      4916      ----      ----      ----     52.32    342.20      8.00     23.59    138.00     13.48     12.65
03/07 19:00      0.00    532.26     23890    512.13      ----      4473      4177      ----      ----      ----     49.30    334.60      3.50     29.07      3.70     13.48     12.65
03/07 20:00      0.00    532.26     23890    512.16      ----      4510      4179      ----      ----      ----     45.70    343.10      0.60     41.63      0.00     13.48     12.65
03/07 21:00      0.00    532.27     23906    512.19      ----      4176      4174      ----      ----      ----     41.20     83.40      0.10     55.88      0.00     13.48     12.65
03/07 22:00      0.00    532.28     23921    512.22      ----      3915      4175      ----      ----      ----     38.77    187.60      0.30     62.70      0.00     13.48     12.65
03/07 23:00      0.00    532.29     23937    512.21      ----      4399      4176      ----      ----      ----     36.63    223.20      0.60     66.45      0.00     13.48     12.65